Accueil
METAR-TAF:

METAR-TAF

Aéroports :

Buochs, Suisse

latitude: 46-58-28N, longitude: 8-23-49E, altitude: 449 m

Observation

Le bulletin a été fait il y a 39 minutes, à 07:50 UTC
Vent 7 kt de nord/nord-ouest
Température 4°C
Humidité 81%
Pression 1023 hPa
Visibilité: 8000 m
Ciel couvert à une hauteur de 1700 ft

METAR: LSZC 170750Z 33007KT 8000 OVC017 04/01 Q1023

Heure: 09:29 (08:29 UTC)

Prévision

Le bulletin a été fait il y a 18 heures et 4 minutes, à 14:25 UTC
Prévision valable du 16 à 15 UTC au 16 à 24 UTC
Vent 4 kt de sud-ouest
Visibilité: 7000 m
Quelques nuages à une hauteur de 500 ft
Ciel couvert à une hauteur de 1500 ft
Temporairement
du 16 à 15 UTC au 16 à 18 UTC
Ciel couvert à une hauteur de 1200 ft
Evoluant progressivement
du 16 à 18 UTC au 16 à 21 UTC
Visibilité: 4000 m
Nuages fragmentés à une hauteur de 800 ft
brume

TAF: LSZC 161425Z 1615/1624 22004KT 7000 FEW005 OVC015 TEMPO 1615/1618 OVC012 BECMG 1618/1621 4000 BR BKN008

Observations et prévisions météorologiques de plus de 4000 aéroports (messages METAR et TAF).

Les stations disponibles sont représentées par des disques jaunes et rouges sur la carte.

Passer la souris dessus pour voir le nom de la station.

Cliquer dessus pour voir les observations et prévisions météorologiques.

Pour changer de carte: cliquez sur les boutons verts avec une croix noire pour zoomer, sur le bouton vert avec un tiret pour effectuer un zoom arrière, ou sur les flèches vertes pour les cartes adjacentes.


METAR-TAF: